SEASEATTLE-TACOMA INTL
METARs for airports near SEA, sorted by distance:
N 0 nm 432' KSEA 290653Z 22006KT 10SM FEW012 FEW023 OVC031 14/12 A3012
NE 4 nm 32' KRNT 290653Z 19005KT 10SM BKN036 OVC070 16/12 A3011
N 4 nm 21' KBFI 290653Z 21008G18KT 10SM OVC035 15/12 A3012
SW 15 nm 294' KTIW 290653Z 25004KT 10SM OVC035 14/13 A3012
W 18 nm 444' KPWT 290656Z 21008KT 10SM OVC035 13/12 A3012
S 19 nm 322' KTCM 290658Z 22009KT 10SM OVC035 15/13 A3012
S 20 nm 537' KPLU 290655Z 25005KT 10SM OVC035 15/12 A3013
SW 24 nm 301' KGRF 290658Z 19004KT 10SM OVC033 15/11 A3011
N 27 nm 606' KPAE 290653Z 19012KT 10SM FEW013 OVC080 14/11 A3010
W 36 nm 272' KSHN 290653Z 23006KT 10SM BKN012 BKN017 OVC038 13/12 A3010
SW 37 nm 207' KOLM 290703Z 26003KT 10SM FEW020 OVC029 14/12 A3013
N 43 nm 141' KAWO 290656Z 16009KT 10SM OVC020 15/12 A3010
SW 53 nm 177' KCLS 290655Z 00000KT 10SM OVC033 15/13 A3014
N 55 nm 47' KNUW 290656Z 00000KT 10SM SCT021 OVC060 13/13 A3012
NW 60 nm 13' KNOW 290655Z 26005KT 10SM OVC060 13/12 A3009
N 61 nm 145' KBVS 290655Z 00000KT 10SM SCT024 OVC055 14/13 A3009
NW 62 nm 291' KCLM 290653Z 00000KT 10SM FEW044 OVC060 14/11 A3009
NW 70 nm 112' KFHR 290653Z 00000KT 10SM BKN034 OVC049 13/11 A3009
SW 72 nm 17' KHQM 290700Z 25011KT 10SM FEW007 OVC018 14/12 A3014
E 76 nm 1763' KELN 290653Z 31010KT 10SM FEW060 15/08 A3006
N 79 nm 34' KORS 290615Z 18009KT 10SM -RA FEW041 OVC050 15/13 A3006
N 81 nm 171' KBLI 290653Z 18007KT 10SM OVC050 16/13 A3007
S 83 nm 20' KKLS 290656Z 00000KT 10SM OVC031 16/11 A3017
NW 84 nm 64' CYYJ 290700Z 13003KT 120V190 30SM BKN049 OVC080 14/12 A3007
E 85 nm 1248' KEAT 290655Z 32006KT 10SM CLR 16/07 A3001
SE 89 nm 1098' KYKM 290653Z 26005KT 10SM CLR 16/07 A3004
W 95 nm 193' KUIL 290653Z 18005KT 2SM -RA BR OVC003 13/12 A3010
TAFs for airports near SEA, sorted by distance:
N 0 nm 432' KSEA KSEA 290521Z 2906/3012 22007KT P6SM SCT015 OVC025
  TEMPO 2906/2909 BKN015 OVC022
  FM290900 18008KT P6SM VCSH BKN015 OVC030
  FM291700 21008KT P6SM BKN020 OVC040
  FM292200 24009KT P6SM SCT020 BKN040
  FM300800 36005KT P6SM BKN022
N 4 nm 21' KBFI KBFI 290521Z 2906/3006 19008KT P6SM SCT020 OVC030
  TEMPO 2906/2909 BKN020 OVC027
  FM290900 16006KT P6SM VCSH BKN020 OVC040
  FM291700 21006KT P6SM BKN022 OVC040
  FM292200 21006KT P6SM SCT020 BKN040
W 18 nm 444' KPWT TAF KPWT 290521Z 2906/3006 22010KT P6SM VCSH SCT010 OVC030
  TEMPO 2906/2910 BKN008 OVC022
  FM291000 19007KT P6SM VCSH BKN008 OVC020
  FM291700 20008KT P6SM BKN015 OVC030
  FM292200 20008KT P6SM SCT020 BKN040
S 19 nm 322' KTCM TAF KTCM 290500Z 2905/3011 22009KT 9999 OVC035 QNH3009INS
  BECMG 2906/2907 22006KT 9999 OVC012 QNH3010INS
  BECMG 2908/2909 21006KT 6000 -SHRA BR BKN005 OVC012 QNH3010INS
  BECMG 2912/2913 20009KT 9999 NSW SCT009 OVC015 QNH3014INS
  BECMG 2916/2917 22010G15KT 9999 BKN020 OVC035 QNH3016INS
  BECMG 2921/2922 25006KT 9999 SCT025 BKN035 QNH3017INS TX20/2923Z TN13/2909Z
SW 24 nm 301' KGRF TAF TAF KGRF 290450Z 2905/3011 21006KT 9999 VCSH BKN025 OVC035 QNH3010INS
  BECMG 2910/2911 20006KT 9999 VCSH BKN008 BKN025 OVC040 QNH3012INS
  BECMG 2914/2915 21010G15KT 9999 NSW BKN015 OVC035 QNH3016INS
  BECMG 2916/2917 22009KT 9999 BKN025 BKN050 QNH3016INS TX18/2922Z TN13/2913Z
N 27 nm 606' KPAE TAF KPAE 290521Z 2906/3006 20010KT P6SM VCSH BKN015 OVC040
  FM290800 18008KT P6SM VCSH BKN015 OVC030
  FM291700 21008KT P6SM BKN020 OVC040
  FM292200 24005KT P6SM SCT020 BKN040
  FM300300 36003KT P6SM BKN045
SW 37 nm 207' KOLM KOLM 290521Z 2906/3006 21005KT P6SM VCSH SCT022 OVC035
  TEMPO 2906/2910 BKN020
  FM291000 21008KT P6SM OVC018
  FM291700 21008KT P6SM BKN020 OVC040
  FM292200 24008KT P6SM SCT025 BKN050
N 55 nm 47' KNUW TAF
  AMD KNUW 2902/2923 16007KT 9999 VCSH SCT025 BKN040 BKN100 OVC220 640909 QNH3005INS
  TEMPO 2902/2906 VRB06KT 9000 -SHRA BR BKN025 OVC050
  FM290600 VRB06KT 9999 FEW005 BKN025 OVC040 640909 QNH3009INS
  TEMPO 2910/2916 16008KT 1600 -DZ BR BKN005 OVC015 T17/2823Z T11/2912Z
  AMD 0230 FS30004
NW 62 nm 291' KCLM TAF KCLM 290521Z 2906/3006 VRB04KT P6SM VCSH SCT025 OVC040
  FM290800 VRB04KT P6SM VCSH SCT015 OVC030
  FM291700 27007KT P6SM BKN030 OVC050
  FM292200 30010KT P6SM SCT030 BKN050
SW 72 nm 17' KHQM TAF COR KHQM 290522Z 2906/3006 24010KT 5SM BR VCSH BKN008 OVC020
  TEMPO 2906/2910 SCT010 OVC020
  FM291700 29010KT 6SM BR VCSH BKN015 OVC040
  FM292200 29010KT P6SM SCT018 BKN035
N 81 nm 171' KBLI KBLI 290521Z 2906/3006 18008KT P6SM VCSH SCT025 OVC040
  FM291000 18008KT P6SM VCSH BKN022 OVC030
  FM291700 18008KT P6SM VCSH BKN020 OVC040
  FM292200 18008KT P6SM SCT020 BKN040
E 85 nm 1248' KEAT TAF KEAT 290520Z 2906/3006 29015G22KT P6SM BKN080
  FM290700 30012KT P6SM FEW080
  FM292000 28011G17KT P6SM FEW150 FEW250
  FM300500 30010KT P6SM FEW250
SE 89 nm 1098' KYKM TAF KYKM 290520Z 2906/3006 27009KT P6SM SKC
  FM291500 30010KT P6SM SCT200

Shortcut to this page: http://wxbay.com.

Data may contain errors.